sensor_id;sensor_type;location;lat;lon;timestamp;P1;durP1;ratioP1;P2;durP2;ratioP2
12844;SDS011;6489;48.508;9.206;2023-03-05T00:01:35;40.60;;;8.77;;
12844;SDS011;6489;48.508;9.206;2023-03-05T00:04:58;27.57;;;7.63;;
12844;SDS011;6489;48.508;9.206;2023-03-05T00:08:20;18.73;;;6.93;;
12844;SDS011;6489;48.508;9.206;2023-03-05T00:11:42;27.17;;;8.17;;
12844;SDS011;6489;48.508;9.206;2023-03-05T00:15:05;26.67;;;7.20;;
12844;SDS011;6489;48.508;9.206;2023-03-05T00:18:28;26.27;;;7.93;;
12844;SDS011;6489;48.508;9.206;2023-03-05T00:21:52;24.43;;;7.50;;
12844;SDS011;6489;48.508;9.206;2023-03-05T00:25:14;22.20;;;7.50;;
12844;SDS011;6489;48.508;9.206;2023-03-05T00:28:36;31.07;;;7.70;;
12844;SDS011;6489;48.508;9.206;2023-03-05T00:31:58;24.27;;;7.90;;
12844;SDS011;6489;48.508;9.206;2023-03-05T00:35:20;21.87;;;7.47;;
12844;SDS011;6489;48.508;9.206;2023-03-05T00:38:44;26.97;;;7.60;;
12844;SDS011;6489;48.508;9.206;2023-03-05T00:42:06;23.87;;;7.57;;
12844;SDS011;6489;48.508;9.206;2023-03-05T00:45:28;22.47;;;7.07;;
12844;SDS011;6489;48.508;9.206;2023-03-05T00:48:50;30.67;;;7.73;;
12844;SDS011;6489;48.508;9.206;2023-03-05T00:52:12;34.30;;;8.43;;
12844;SDS011;6489;48.508;9.206;2023-03-05T00:55:35;26.03;;;7.33;;
12844;SDS011;6489;48.508;9.206;2023-03-05T00:58:57;28.87;;;7.80;;
12844;SDS011;6489;48.508;9.206;2023-03-05T01:02:19;30.70;;;8.17;;
12844;SDS011;6489;48.508;9.206;2023-03-05T01:05:41;26.40;;;7.60;;
12844;SDS011;6489;48.508;9.206;2023-03-05T01:09:04;27.40;;;7.90;;
12844;SDS011;6489;48.508;9.206;2023-03-05T01:12:27;55.83;;;9.90;;
12844;SDS011;6489;48.508;9.206;2023-03-05T01:15:49;35.17;;;8.70;;
12844;SDS011;6489;48.508;9.206;2023-03-05T01:19:11;26.53;;;7.83;;
12844;SDS011;6489;48.508;9.206;2023-03-05T01:22:34;51.83;;;9.60;;
12844;SDS011;6489;48.508;9.206;2023-03-05T01:25:57;43.07;;;8.93;;
12844;SDS011;6489;48.508;9.206;2023-03-05T01:29:20;38.20;;;8.67;;
12844;SDS011;6489;48.508;9.206;2023-03-05T01:32:42;24.83;;;7.77;;
12844;SDS011;6489;48.508;9.206;2023-03-05T01:36:08;33.00;;;7.57;;
12844;SDS011;6489;48.508;9.206;2023-03-05T01:39:32;28.33;;;8.20;;
12844;SDS011;6489;48.508;9.206;2023-03-05T01:42:56;40.37;;;8.97;;
12844;SDS011;6489;48.508;9.206;2023-03-05T01:46:27;29.53;;;8.30;;
12844;SDS011;6489;48.508;9.206;2023-03-05T01:49:51;22.27;;;7.50;;
12844;SDS011;6489;48.508;9.206;2023-03-05T01:53:13;32.70;;;8.57;;
12844;SDS011;6489;48.508;9.206;2023-03-05T01:56:37;27.60;;;7.43;;
12844;SDS011;6489;48.508;9.206;2023-03-05T02:00:00;30.77;;;8.50;;
12844;SDS011;6489;48.508;9.206;2023-03-05T02:03:24;29.70;;;8.27;;
12844;SDS011;6489;48.508;9.206;2023-03-05T02:06:47;20.60;;;7.10;;
12844;SDS011;6489;48.508;9.206;2023-03-05T02:10:16;24.30;;;7.97;;
12844;SDS011;6489;48.508;9.206;2023-03-05T02:13:39;36.60;;;8.43;;
12844;SDS011;6489;48.508;9.206;2023-03-05T02:17:01;23.97;;;7.50;;
12844;SDS011;6489;48.508;9.206;2023-03-05T02:20:26;18.93;;;6.93;;
12844;SDS011;6489;48.508;9.206;2023-03-05T02:23:52;49.13;;;9.67;;
12844;SDS011;6489;48.508;9.206;2023-03-05T02:27:14;11.83;;;6.50;;
12844;SDS011;6489;48.508;9.206;2023-03-05T02:30:38;23.93;;;7.10;;
12844;SDS011;6489;48.508;9.206;2023-03-05T02:34:00;41.43;;;8.93;;
12844;SDS011;6489;48.508;9.206;2023-03-05T02:37:23;31.37;;;8.13;;
12844;SDS011;6489;48.508;9.206;2023-03-05T02:40:49;20.60;;;7.17;;
12844;SDS011;6489;48.508;9.206;2023-03-05T02:44:11;30.53;;;8.33;;
12844;SDS011;6489;48.508;9.206;2023-03-05T02:47:33;33.40;;;8.67;;
12844;SDS011;6489;48.508;9.206;2023-03-05T02:50:56;13.93;;;7.13;;
12844;SDS011;6489;48.508;9.206;2023-03-05T02:54:18;15.57;;;6.60;;
12844;SDS011;6489;48.508;9.206;2023-03-05T02:57:42;21.13;;;7.30;;
12844;SDS011;6489;48.508;9.206;2023-03-05T03:01:05;21.53;;;7.83;;
12844;SDS011;6489;48.508;9.206;2023-03-05T03:04:27;24.03;;;7.60;;
12844;SDS011;6489;48.508;9.206;2023-03-05T03:07:50;28.03;;;7.67;;
12844;SDS011;6489;48.508;9.206;2023-03-05T03:11:12;26.73;;;8.20;;
12844;SDS011;6489;48.508;9.206;2023-03-05T03:14:36;23.53;;;7.67;;
12844;SDS011;6489;48.508;9.206;2023-03-05T03:18:00;20.73;;;7.47;;
12844;SDS011;6489;48.508;9.206;2023-03-05T03:21:22;24.10;;;7.63;;
12844;SDS011;6489;48.508;9.206;2023-03-05T03:24:46;21.77;;;7.10;;
12844;SDS011;6489;48.508;9.206;2023-03-05T03:28:08;19.77;;;7.47;;
12844;SDS011;6489;48.508;9.206;2023-03-05T03:31:31;21.20;;;7.73;;
12844;SDS011;6489;48.508;9.206;2023-03-05T03:34:54;30.57;;;8.30;;
12844;SDS011;6489;48.508;9.206;2023-03-05T03:38:16;22.77;;;7.30;;
12844;SDS011;6489;48.508;9.206;2023-03-05T03:41:40;10.87;;;6.60;;
12844;SDS011;6489;48.508;9.206;2023-03-05T03:45:03;24.27;;;7.77;;
12844;SDS011;6489;48.508;9.206;2023-03-05T03:48:27;37.00;;;8.73;;
12844;SDS011;6489;48.508;9.206;2023-03-05T03:51:50;26.60;;;7.80;;
12844;SDS011;6489;48.508;9.206;2023-03-05T03:55:13;20.23;;;7.73;;
12844;SDS011;6489;48.508;9.206;2023-03-05T03:58:35;29.57;;;8.57;;
12844;SDS011;6489;48.508;9.206;2023-03-05T04:01:57;41.77;;;9.53;;
12844;SDS011;6489;48.508;9.206;2023-03-05T04:05:21;27.60;;;8.00;;
12844;SDS011;6489;48.508;9.206;2023-03-05T04:08:43;16.87;;;7.43;;
12844;SDS011;6489;48.508;9.206;2023-03-05T04:12:06;22.50;;;7.77;;
12844;SDS011;6489;48.508;9.206;2023-03-05T04:15:29;33.03;;;8.70;;
12844;SDS011;6489;48.508;9.206;2023-03-05T04:18:51;24.43;;;7.93;;
12844;SDS011;6489;48.508;9.206;2023-03-05T04:22:16;26.17;;;7.80;;
12844;SDS011;6489;48.508;9.206;2023-03-05T04:25:38;22.03;;;7.17;;
12844;SDS011;6489;48.508;9.206;2023-03-05T04:29:00;33.97;;;9.00;;
12844;SDS011;6489;48.508;9.206;2023-03-05T04:32:23;23.37;;;7.33;;
12844;SDS011;6489;48.508;9.206;2023-03-05T04:35:48;17.93;;;7.30;;
12844;SDS011;6489;48.508;9.206;2023-03-05T04:39:12;35.93;;;8.67;;
12844;SDS011;6489;48.508;9.206;2023-03-05T04:42:35;30.50;;;7.80;;
12844;SDS011;6489;48.508;9.206;2023-03-05T04:45:58;25.10;;;8.00;;
12844;SDS011;6489;48.508;9.206;2023-03-05T04:49:20;17.70;;;6.93;;
12844;SDS011;6489;48.508;9.206;2023-03-05T04:52:43;26.50;;;8.07;;
12844;SDS011;6489;48.508;9.206;2023-03-05T04:56:08;30.17;;;7.67;;
12844;SDS011;6489;48.508;9.206;2023-03-05T04:59:30;24.00;;;7.77;;
12844;SDS011;6489;48.508;9.206;2023-03-05T05:02:52;15.53;;;6.67;;
12844;SDS011;6489;48.508;9.206;2023-03-05T05:06:15;36.17;;;8.33;;
12844;SDS011;6489;48.508;9.206;2023-03-05T05:09:38;23.43;;;7.97;;
12844;SDS011;6489;48.508;9.206;2023-03-05T05:13:02;15.83;;;7.03;;
12844;SDS011;6489;48.508;9.206;2023-03-05T05:16:24;18.80;;;7.30;;
12844;SDS011;6489;48.508;9.206;2023-03-05T05:19:46;27.77;;;7.43;;
12844;SDS011;6489;48.508;9.206;2023-03-05T05:23:09;30.83;;;7.87;;
12844;SDS011;6489;48.508;9.206;2023-03-05T05:26:31;19.80;;;7.53;;
12844;SDS011;6489;48.508;9.206;2023-03-05T05:29:55;24.70;;;7.80;;
12844;SDS011;6489;48.508;9.206;2023-03-05T05:33:17;24.47;;;7.37;;
12844;SDS011;6489;48.508;9.206;2023-03-05T05:36:40;37.40;;;8.27;;
12844;SDS011;6489;48.508;9.206;2023-03-05T05:40:03;20.87;;;7.57;;
12844;SDS011;6489;48.508;9.206;2023-03-05T05:43:27;23.60;;;7.50;;
12844;SDS011;6489;48.508;9.206;2023-03-05T05:46:51;20.80;;;7.13;;
12844;SDS011;6489;48.508;9.206;2023-03-05T05:50:13;23.67;;;6.97;;
12844;SDS011;6489;48.508;9.206;2023-03-05T05:53:35;23.07;;;7.43;;
12844;SDS011;6489;48.508;9.206;2023-03-05T05:56:58;21.93;;;7.40;;
12844;SDS011;6489;48.508;9.206;2023-03-05T06:00:21;35.47;;;8.83;;
12844;SDS011;6489;48.508;9.206;2023-03-05T06:03:45;17.23;;;6.83;;
12844;SDS011;6489;48.508;9.206;2023-03-05T06:07:07;29.90;;;8.00;;
12844;SDS011;6489;48.508;9.206;2023-03-05T06:10:30;25.83;;;7.90;;
12844;SDS011;6489;48.508;9.206;2023-03-05T06:13:52;35.50;;;7.97;;
12844;SDS011;6489;48.508;9.206;2023-03-05T06:17:15;26.17;;;8.03;;
12844;SDS011;6489;48.508;9.206;2023-03-05T06:20:38;18.73;;;7.13;;
12844;SDS011;6489;48.508;9.206;2023-03-05T06:24:01;46.30;;;8.93;;
12844;SDS011;6489;48.508;9.206;2023-03-05T06:27:23;37.87;;;8.23;;
12844;SDS011;6489;48.508;9.206;2023-03-05T06:30:46;32.90;;;8.20;;
12844;SDS011;6489;48.508;9.206;2023-03-05T06:34:08;42.23;;;9.30;;
12844;SDS011;6489;48.508;9.206;2023-03-05T06:37:32;39.37;;;8.93;;
12844;SDS011;6489;48.508;9.206;2023-03-05T06:40:58;22.57;;;7.20;;
12844;SDS011;6489;48.508;9.206;2023-03-05T06:44:22;25.53;;;7.17;;
12844;SDS011;6489;48.508;9.206;2023-03-05T06:47:44;17.67;;;6.80;;
12844;SDS011;6489;48.508;9.206;2023-03-05T06:51:11;24.13;;;7.20;;
12844;SDS011;6489;48.508;9.206;2023-03-05T06:54:36;25.77;;;7.60;;
12844;SDS011;6489;48.508;9.206;2023-03-05T06:58:02;23.53;;;7.43;;
12844;SDS011;6489;48.508;9.206;2023-03-05T07:01:24;40.13;;;8.53;;
12844;SDS011;6489;48.508;9.206;2023-03-05T07:04:46;28.83;;;6.90;;
12844;SDS011;6489;48.508;9.206;2023-03-05T07:08:09;44.00;;;8.43;;
12844;SDS011;6489;48.508;9.206;2023-03-05T07:11:32;29.87;;;7.77;;
12844;SDS011;6489;48.508;9.206;2023-03-05T07:14:55;19.00;;;6.97;;
12844;SDS011;6489;48.508;9.206;2023-03-05T07:18:17;52.63;;;14.63;;
12844;SDS011;6489;48.508;9.206;2023-03-05T07:21:40;29.53;;;9.17;;
12844;SDS011;6489;48.508;9.206;2023-03-05T07:25:03;25.20;;;9.07;;
12844;SDS011;6489;48.508;9.206;2023-03-05T07:28:27;19.63;;;8.10;;
12844;SDS011;6489;48.508;9.206;2023-03-05T07:31:49;34.30;;;8.83;;
12844;SDS011;6489;48.508;9.206;2023-03-05T07:35:12;12.40;;;6.43;;
12844;SDS011;6489;48.508;9.206;2023-03-05T07:38:35;50.07;;;10.10;;
12844;SDS011;6489;48.508;9.206;2023-03-05T07:41:57;27.77;;;7.90;;
12844;SDS011;6489;48.508;9.206;2023-03-05T07:45:21;45.87;;;9.83;;
12844;SDS011;6489;48.508;9.206;2023-03-05T07:48:44;40.87;;;9.03;;
12844;SDS011;6489;48.508;9.206;2023-03-05T07:52:07;18.57;;;7.10;;
12844;SDS011;6489;48.508;9.206;2023-03-05T07:55:30;27.27;;;8.50;;
12844;SDS011;6489;48.508;9.206;2023-03-05T07:58:52;45.80;;;11.47;;
12844;SDS011;6489;48.508;9.206;2023-03-05T08:02:16;28.73;;;8.20;;
12844;SDS011;6489;48.508;9.206;2023-03-05T08:05:39;29.00;;;8.33;;
12844;SDS011;6489;48.508;9.206;2023-03-05T08:09:02;23.73;;;7.87;;
12844;SDS011;6489;48.508;9.206;2023-03-05T08:12:25;34.20;;;8.80;;
12844;SDS011;6489;48.508;9.206;2023-03-05T08:15:47;25.63;;;8.37;;
12844;SDS011;6489;48.508;9.206;2023-03-05T08:19:11;35.33;;;8.93;;
12844;SDS011;6489;48.508;9.206;2023-03-05T08:22:33;28.53;;;8.10;;
12844;SDS011;6489;48.508;9.206;2023-03-05T08:25:55;35.17;;;9.20;;
12844;SDS011;6489;48.508;9.206;2023-03-05T08:29:18;26.80;;;7.73;;
12844;SDS011;6489;48.508;9.206;2023-03-05T08:32:40;28.00;;;8.07;;
12844;SDS011;6489;48.508;9.206;2023-03-05T08:36:04;33.13;;;7.87;;
12844;SDS011;6489;48.508;9.206;2023-03-05T08:39:27;33.83;;;8.33;;
12844;SDS011;6489;48.508;9.206;2023-03-05T08:42:50;25.63;;;12.13;;
12844;SDS011;6489;48.508;9.206;2023-03-05T08:46:12;34.50;;;13.20;;
12844;SDS011;6489;48.508;9.206;2023-03-05T08:49:35;31.33;;;13.83;;
12844;SDS011;6489;48.508;9.206;2023-03-05T08:52:59;31.80;;;15.30;;
12844;SDS011;6489;48.508;9.206;2023-03-05T08:56:22;31.20;;;13.70;;
12844;SDS011;6489;48.508;9.206;2023-03-05T08:59:45;38.43;;;13.50;;
12844;SDS011;6489;48.508;9.206;2023-03-05T09:03:07;33.00;;;11.33;;
12844;SDS011;6489;48.508;9.206;2023-03-05T09:06:30;24.73;;;9.77;;
12844;SDS011;6489;48.508;9.206;2023-03-05T09:09:54;20.57;;;8.90;;
12844;SDS011;6489;48.508;9.206;2023-03-05T09:13:17;23.13;;;8.43;;
12844;SDS011;6489;48.508;9.206;2023-03-05T09:16:39;25.70;;;9.17;;
12844;SDS011;6489;48.508;9.206;2023-03-05T09:20:02;18.13;;;7.80;;
12844;SDS011;6489;48.508;9.206;2023-03-05T09:23:26;21.03;;;8.07;;
12844;SDS011;6489;48.508;9.206;2023-03-05T09:26:56;23.90;;;7.57;;
12844;SDS011;6489;48.508;9.206;2023-03-05T09:30:19;25.07;;;7.83;;
12844;SDS011;6489;48.508;9.206;2023-03-05T09:33:45;25.03;;;7.80;;
12844;SDS011;6489;48.508;9.206;2023-03-05T09:37:08;23.40;;;7.43;;
12844;SDS011;6489;48.508;9.206;2023-03-05T09:40:31;17.47;;;7.27;;
12844;SDS011;6489;48.508;9.206;2023-03-05T09:44:15;20.90;;;7.77;;
12844;SDS011;6489;48.508;9.206;2023-03-05T09:47:49;26.67;;;7.17;;
12844;SDS011;6489;48.508;9.206;2023-03-05T09:51:17;20.03;;;7.20;;
12844;SDS011;6489;48.508;9.206;2023-03-05T09:54:42;21.50;;;7.00;;
12844;SDS011;6489;48.508;9.206;2023-03-05T09:58:10;24.50;;;7.10;;
12844;SDS011;6489;48.508;9.206;2023-03-05T10:01:38;16.30;;;6.73;;
12844;SDS011;6489;48.508;9.206;2023-03-05T10:05:02;12.50;;;6.30;;
12844;SDS011;6489;48.508;9.206;2023-03-05T10:08:40;18.80;;;6.83;;
12844;SDS011;6489;48.508;9.206;2023-03-05T10:12:11;9.37;;;6.10;;
12844;SDS011;6489;48.508;9.206;2023-03-05T10:15:35;16.00;;;6.13;;
12844;SDS011;6489;48.508;9.206;2023-03-05T10:19:03;20.93;;;6.77;;
12844;SDS011;6489;48.508;9.206;2023-03-05T10:22:36;11.07;;;5.63;;
12844;SDS011;6489;48.508;9.206;2023-03-05T10:26:09;18.13;;;6.33;;
12844;SDS011;6489;48.508;9.206;2023-03-05T10:29:47;17.67;;;6.23;;
12844;SDS011;6489;48.508;9.206;2023-03-05T10:33:14;8.87;;;5.20;;
12844;SDS011;6489;48.508;9.206;2023-03-05T10:36:44;14.00;;;5.00;;
12844;SDS011;6489;48.508;9.206;2023-03-05T10:40:20;14.07;;;4.90;;
12844;SDS011;6489;48.508;9.206;2023-03-05T10:43:53;25.60;;;5.90;;
12844;SDS011;6489;48.508;9.206;2023-03-05T10:47:20;12.63;;;5.13;;
12844;SDS011;6489;48.508;9.206;2023-03-05T10:50:44;16.13;;;5.10;;
12844;SDS011;6489;48.508;9.206;2023-03-05T10:54:10;11.37;;;4.67;;
12844;SDS011;6489;48.508;9.206;2023-03-05T10:57:37;24.30;;;5.73;;
12844;SDS011;6489;48.508;9.206;2023-03-05T11:01:00;22.83;;;5.73;;
12844;SDS011;6489;48.508;9.206;2023-03-05T11:04:27;14.23;;;4.73;;
12844;SDS011;6489;48.508;9.206;2023-03-05T11:07:51;5.77;;;4.13;;
12844;SDS011;6489;48.508;9.206;2023-03-05T11:11:16;17.90;;;5.30;;
12844;SDS011;6489;48.508;9.206;2023-03-05T11:14:40;18.50;;;5.10;;
12844;SDS011;6489;48.508;9.206;2023-03-05T11:18:07;13.70;;;5.33;;
12844;SDS011;6489;48.508;9.206;2023-03-05T11:21:39;12.13;;;4.60;;
12844;SDS011;6489;48.508;9.206;2023-03-05T11:25:03;14.07;;;4.63;;
12844;SDS011;6489;48.508;9.206;2023-03-05T11:28:36;19.40;;;5.20;;
12844;SDS011;6489;48.508;9.206;2023-03-05T11:32:13;14.80;;;5.10;;
12844;SDS011;6489;48.508;9.206;2023-03-05T11:35:38;22.23;;;5.30;;
12844;SDS011;6489;48.508;9.206;2023-03-05T11:39:08;16.30;;;5.30;;
12844;SDS011;6489;48.508;9.206;2023-03-05T11:42:31;17.90;;;5.70;;
12844;SDS011;6489;48.508;9.206;2023-03-05T11:45:57;15.73;;;5.33;;
12844;SDS011;6489;48.508;9.206;2023-03-05T11:49:21;19.90;;;5.47;;
12844;SDS011;6489;48.508;9.206;2023-03-05T11:52:47;25.93;;;5.73;;
12844;SDS011;6489;48.508;9.206;2023-03-05T11:56:13;12.27;;;5.03;;
12844;SDS011;6489;48.508;9.206;2023-03-05T11:59:39;22.13;;;5.83;;
12844;SDS011;6489;48.508;9.206;2023-03-05T12:03:03;22.03;;;5.73;;
12844;SDS011;6489;48.508;9.206;2023-03-05T12:06:28;10.80;;;4.30;;
12844;SDS011;6489;48.508;9.206;2023-03-05T12:09:56;23.33;;;5.50;;
12844;SDS011;6489;48.508;9.206;2023-03-05T12:13:22;23.60;;;5.83;;
12844;SDS011;6489;48.508;9.206;2023-03-05T12:16:46;21.30;;;5.60;;
12844;SDS011;6489;48.508;9.206;2023-03-05T12:20:11;11.87;;;4.50;;
12844;SDS011;6489;48.508;9.206;2023-03-05T12:23:46;15.77;;;4.73;;
12844;SDS011;6489;48.508;9.206;2023-03-05T12:27:10;21.93;;;5.37;;
12844;SDS011;6489;48.508;9.206;2023-03-05T12:30:53;8.30;;;4.47;;
12844;SDS011;6489;48.508;9.206;2023-03-05T12:34:35;20.07;;;5.37;;
12844;SDS011;6489;48.508;9.206;2023-03-05T12:41:50;21.83;;;5.73;;
12844;SDS011;6489;48.508;9.206;2023-03-05T12:45:37;20.80;;;5.27;;
12844;SDS011;6489;48.508;9.206;2023-03-05T12:49:09;28.47;;;5.97;;
12844;SDS011;6489;48.508;9.206;2023-03-05T12:52:49;16.60;;;4.87;;
12844;SDS011;6489;48.508;9.206;2023-03-05T12:56:15;9.13;;;4.30;;
12844;SDS011;6489;48.508;9.206;2023-03-05T12:59:42;15.40;;;4.77;;
12844;SDS011;6489;48.508;9.206;2023-03-05T13:03:07;16.53;;;4.60;;
12844;SDS011;6489;48.508;9.206;2023-03-05T13:06:33;19.30;;;4.70;;
12844;SDS011;6489;48.508;9.206;2023-03-05T13:09:56;25.30;;;5.10;;
12844;SDS011;6489;48.508;9.206;2023-03-05T13:13:19;14.33;;;4.33;;
12844;SDS011;6489;48.508;9.206;2023-03-05T13:16:43;14.13;;;4.30;;
12844;SDS011;6489;48.508;9.206;2023-03-05T13:20:23;24.50;;;5.60;;
12844;SDS011;6489;48.508;9.206;2023-03-05T13:23:47;16.87;;;5.00;;
12844;SDS011;6489;48.508;9.206;2023-03-05T13:27:23;5.80;;;4.00;;
12844;SDS011;6489;48.508;9.206;2023-03-05T13:30:49;9.87;;;4.20;;
12844;SDS011;6489;48.508;9.206;2023-03-05T13:34:17;16.23;;;4.70;;
12844;SDS011;6489;48.508;9.206;2023-03-05T13:37:42;20.47;;;5.13;;
12844;SDS011;6489;48.508;9.206;2023-03-05T13:41:18;24.50;;;5.03;;
12844;SDS011;6489;48.508;9.206;2023-03-05T13:44:40;24.93;;;4.93;;
12844;SDS011;6489;48.508;9.206;2023-03-05T13:48:04;15.97;;;4.37;;
12844;SDS011;6489;48.508;9.206;2023-03-05T13:51:41;15.47;;;4.67;;
12844;SDS011;6489;48.508;9.206;2023-03-05T13:55:09;18.67;;;4.47;;
12844;SDS011;6489;48.508;9.206;2023-03-05T13:58:40;17.63;;;4.70;;
12844;SDS011;6489;48.508;9.206;2023-03-05T14:02:13;21.93;;;5.13;;
12844;SDS011;6489;48.508;9.206;2023-03-05T14:05:41;19.87;;;4.70;;
12844;SDS011;6489;48.508;9.206;2023-03-05T14:09:06;13.67;;;4.03;;
12844;SDS011;6489;48.508;9.206;2023-03-05T14:12:32;14.23;;;4.27;;
12844;SDS011;6489;48.508;9.206;2023-03-05T14:16:01;13.73;;;4.07;;
12844;SDS011;6489;48.508;9.206;2023-03-05T14:19:31;17.67;;;4.23;;
12844;SDS011;6489;48.508;9.206;2023-03-05T14:22:54;20.90;;;5.10;;
12844;SDS011;6489;48.508;9.206;2023-03-05T14:26:25;16.77;;;4.60;;
12844;SDS011;6489;48.508;9.206;2023-03-05T14:29:52;16.33;;;4.60;;
12844;SDS011;6489;48.508;9.206;2023-03-05T14:33:19;18.00;;;4.57;;
12844;SDS011;6489;48.508;9.206;2023-03-05T14:36:45;13.93;;;3.97;;
12844;SDS011;6489;48.508;9.206;2023-03-05T14:40:16;12.30;;;4.07;;
12844;SDS011;6489;48.508;9.206;2023-03-05T14:43:44;15.63;;;4.30;;
12844;SDS011;6489;48.508;9.206;2023-03-05T14:47:06;5.80;;;3.77;;
12844;SDS011;6489;48.508;9.206;2023-03-05T14:50:29;19.80;;;4.30;;
12844;SDS011;6489;48.508;9.206;2023-03-05T14:53:55;22.03;;;4.73;;
12844;SDS011;6489;48.508;9.206;2023-03-05T14:57:18;15.97;;;4.50;;
12844;SDS011;6489;48.508;9.206;2023-03-05T15:00:43;17.73;;;4.40;;
12844;SDS011;6489;48.508;9.206;2023-03-05T15:04:06;14.40;;;4.30;;
12844;SDS011;6489;48.508;9.206;2023-03-05T15:07:28;16.70;;;4.43;;
12844;SDS011;6489;48.508;9.206;2023-03-05T15:10:52;17.23;;;4.40;;
12844;SDS011;6489;48.508;9.206;2023-03-05T15:14:15;10.53;;;4.00;;
12844;SDS011;6489;48.508;9.206;2023-03-05T15:17:40;19.83;;;4.57;;
12844;SDS011;6489;48.508;9.206;2023-03-05T15:21:03;17.83;;;4.77;;
12844;SDS011;6489;48.508;9.206;2023-03-05T15:24:25;9.13;;;3.67;;
12844;SDS011;6489;48.508;9.206;2023-03-05T15:27:48;11.57;;;4.03;;
12844;SDS011;6489;48.508;9.206;2023-03-05T15:31:11;15.57;;;4.33;;
12844;SDS011;6489;48.508;9.206;2023-03-05T15:34:35;12.80;;;4.23;;
12844;SDS011;6489;48.508;9.206;2023-03-05T15:37:58;11.83;;;3.90;;
12844;SDS011;6489;48.508;9.206;2023-03-05T15:41:20;10.77;;;3.80;;
12844;SDS011;6489;48.508;9.206;2023-03-05T15:44:43;15.30;;;4.30;;
12844;SDS011;6489;48.508;9.206;2023-03-05T15:48:06;18.80;;;4.83;;
12844;SDS011;6489;48.508;9.206;2023-03-05T15:51:30;15.00;;;4.30;;
12844;SDS011;6489;48.508;9.206;2023-03-05T15:54:53;11.30;;;4.40;;
12844;SDS011;6489;48.508;9.206;2023-03-05T15:58:16;16.50;;;4.17;;
12844;SDS011;6489;48.508;9.206;2023-03-05T16:01:38;15.33;;;4.33;;
12844;SDS011;6489;48.508;9.206;2023-03-05T16:05:01;11.90;;;4.07;;
12844;SDS011;6489;48.508;9.206;2023-03-05T16:08:26;12.83;;;4.30;;
12844;SDS011;6489;48.508;9.206;2023-03-05T16:11:49;12.97;;;4.13;;
12844;SDS011;6489;48.508;9.206;2023-03-05T16:15:14;20.50;;;4.50;;
12844;SDS011;6489;48.508;9.206;2023-03-05T16:18:38;15.17;;;4.10;;
12844;SDS011;6489;48.508;9.206;2023-03-05T16:22:01;6.80;;;3.70;;
12844;SDS011;6489;48.508;9.206;2023-03-05T16:25:25;16.00;;;4.43;;
12844;SDS011;6489;48.508;9.206;2023-03-05T16:28:47;13.67;;;4.13;;
12844;SDS011;6489;48.508;9.206;2023-03-05T16:32:10;14.60;;;4.07;;
12844;SDS011;6489;48.508;9.206;2023-03-05T16:35:32;12.27;;;4.10;;
12844;SDS011;6489;48.508;9.206;2023-03-05T16:38:56;18.70;;;4.47;;
12844;SDS011;6489;48.508;9.206;2023-03-05T16:42:20;19.83;;;4.80;;
12844;SDS011;6489;48.508;9.206;2023-03-05T16:45:42;14.13;;;4.00;;
12844;SDS011;6489;48.508;9.206;2023-03-05T16:49:04;16.30;;;4.53;;
12844;SDS011;6489;48.508;9.206;2023-03-05T16:52:27;17.47;;;4.57;;
12844;SDS011;6489;48.508;9.206;2023-03-05T16:55:50;15.63;;;4.90;;
12844;SDS011;6489;48.508;9.206;2023-03-05T16:59:14;13.47;;;3.90;;
12844;SDS011;6489;48.508;9.206;2023-03-05T17:02:37;11.97;;;4.00;;
12844;SDS011;6489;48.508;9.206;2023-03-05T17:05:59;14.07;;;4.17;;
12844;SDS011;6489;48.508;9.206;2023-03-05T17:09:22;22.20;;;5.00;;
12844;SDS011;6489;48.508;9.206;2023-03-05T17:12:45;9.60;;;3.53;;
12844;SDS011;6489;48.508;9.206;2023-03-05T17:16:09;12.57;;;4.10;;
12844;SDS011;6489;48.508;9.206;2023-03-05T17:19:34;16.30;;;4.27;;
12844;SDS011;6489;48.508;9.206;2023-03-05T17:22:56;19.23;;;4.63;;
12844;SDS011;6489;48.508;9.206;2023-03-05T17:26:21;10.33;;;3.83;;
12844;SDS011;6489;48.508;9.206;2023-03-05T17:29:43;11.20;;;3.73;;
12844;SDS011;6489;48.508;9.206;2023-03-05T17:33:08;18.43;;;4.53;;
12844;SDS011;6489;48.508;9.206;2023-03-05T17:36:30;15.23;;;4.30;;
12844;SDS011;6489;48.508;9.206;2023-03-05T17:39:53;10.60;;;3.93;;
12844;SDS011;6489;48.508;9.206;2023-03-05T17:43:15;10.57;;;4.17;;
12844;SDS011;6489;48.508;9.206;2023-03-05T17:46:38;16.23;;;4.13;;
12844;SDS011;6489;48.508;9.206;2023-03-05T17:50:06;20.60;;;4.87;;
12844;SDS011;6489;48.508;9.206;2023-03-05T17:53:28;17.63;;;4.43;;
12844;SDS011;6489;48.508;9.206;2023-03-05T17:56:52;10.97;;;3.80;;
12844;SDS011;6489;48.508;9.206;2023-03-05T18:00:16;17.53;;;4.70;;
12844;SDS011;6489;48.508;9.206;2023-03-05T18:03:38;16.23;;;4.63;;
12844;SDS011;6489;48.508;9.206;2023-03-05T18:07:02;13.87;;;4.30;;
12844;SDS011;6489;48.508;9.206;2023-03-05T18:10:25;9.87;;;3.53;;
12844;SDS011;6489;48.508;9.206;2023-03-05T18:13:48;20.23;;;4.97;;
12844;SDS011;6489;48.508;9.206;2023-03-05T18:17:11;11.60;;;3.93;;
12844;SDS011;6489;48.508;9.206;2023-03-05T18:20:34;17.87;;;4.80;;
12844;SDS011;6489;48.508;9.206;2023-03-05T18:23:59;23.33;;;5.47;;
12844;SDS011;6489;48.508;9.206;2023-03-05T18:27:22;12.50;;;4.23;;
12844;SDS011;6489;48.508;9.206;2023-03-05T18:30:45;19.30;;;4.83;;
12844;SDS011;6489;48.508;9.206;2023-03-05T18:34:08;15.37;;;4.97;;
12844;SDS011;6489;48.508;9.206;2023-03-05T18:37:30;6.23;;;3.87;;
12844;SDS011;6489;48.508;9.206;2023-03-05T18:41:00;15.53;;;4.67;;
12844;SDS011;6489;48.508;9.206;2023-03-05T18:44:23;17.33;;;4.97;;
12844;SDS011;6489;48.508;9.206;2023-03-05T18:47:46;12.30;;;4.60;;
12844;SDS011;6489;48.508;9.206;2023-03-05T18:51:13;16.27;;;4.63;;
12844;SDS011;6489;48.508;9.206;2023-03-05T18:54:37;14.93;;;4.63;;
12844;SDS011;6489;48.508;9.206;2023-03-05T18:58:01;15.80;;;5.13;;
12844;SDS011;6489;48.508;9.206;2023-03-05T19:01:24;17.50;;;4.77;;
12844;SDS011;6489;48.508;9.206;2023-03-05T19:04:46;17.50;;;4.63;;
12844;SDS011;6489;48.508;9.206;2023-03-05T19:08:09;17.73;;;5.10;;
12844;SDS011;6489;48.508;9.206;2023-03-05T19:11:31;17.77;;;5.00;;
12844;SDS011;6489;48.508;9.206;2023-03-05T19:14:55;16.43;;;5.00;;
12844;SDS011;6489;48.508;9.206;2023-03-05T19:18:18;11.30;;;4.20;;
12844;SDS011;6489;48.508;9.206;2023-03-05T19:21:42;14.10;;;5.10;;
12844;SDS011;6489;48.508;9.206;2023-03-05T19:25:05;16.10;;;4.93;;
12844;SDS011;6489;48.508;9.206;2023-03-05T19:28:29;22.13;;;5.20;;
12844;SDS011;6489;48.508;9.206;2023-03-05T19:31:53;14.40;;;4.53;;
12844;SDS011;6489;48.508;9.206;2023-03-05T19:35:16;15.97;;;5.07;;
12844;SDS011;6489;48.508;9.206;2023-03-05T19:38:40;14.57;;;4.60;;
12844;SDS011;6489;48.508;9.206;2023-03-05T19:42:03;17.37;;;5.00;;
12844;SDS011;6489;48.508;9.206;2023-03-05T19:45:26;11.97;;;4.50;;
12844;SDS011;6489;48.508;9.206;2023-03-05T19:48:49;12.40;;;4.57;;
12844;SDS011;6489;48.508;9.206;2023-03-05T19:52:12;13.23;;;4.90;;
12844;SDS011;6489;48.508;9.206;2023-03-05T19:55:38;17.43;;;4.90;;
12844;SDS011;6489;48.508;9.206;2023-03-05T19:59:00;18.67;;;5.40;;
12844;SDS011;6489;48.508;9.206;2023-03-05T20:02:23;18.47;;;5.20;;
12844;SDS011;6489;48.508;9.206;2023-03-05T20:05:47;13.43;;;4.30;;
12844;SDS011;6489;48.508;9.206;2023-03-05T20:09:09;17.47;;;4.90;;
12844;SDS011;6489;48.508;9.206;2023-03-05T20:12:32;23.43;;;5.70;;
12844;SDS011;6489;48.508;9.206;2023-03-05T20:15:55;13.30;;;4.60;;
12844;SDS011;6489;48.508;9.206;2023-03-05T20:19:19;8.97;;;4.07;;
12844;SDS011;6489;48.508;9.206;2023-03-05T20:22:44;19.10;;;5.13;;
12844;SDS011;6489;48.508;9.206;2023-03-05T20:26:07;17.43;;;5.13;;
12844;SDS011;6489;48.508;9.206;2023-03-05T20:29:30;11.90;;;4.20;;
12844;SDS011;6489;48.508;9.206;2023-03-05T20:32:54;10.23;;;4.63;;
12844;SDS011;6489;48.508;9.206;2023-03-05T20:36:18;15.40;;;4.47;;